Time;durP1;ratioP1;P1;durP2;ratioP2;P2;SDS_P1;SDS_P2;PMS_P1;PMS_P2;Temp;Humidity;BMP_temperature;BMP_pressure;BME280_temperature;BME280_humidity;BME280_pressure;Samples;Min_cycle;Max_cycle;Signal;HPM_P1;HPM_P2
2023/10/07 00:04:32;;;;;;;3.10;2.80;;;;;;;12.54;95.40;99328.56;435602;1253;138980;-67
2023/10/07 00:14:38;;;;;;;5.40;4.40;;;;;;;12.63;94.90;99309.46;435997;1256;138751;-68
2023/10/07 00:24:48;;;;;;;4.50;2.80;;;;;;;12.64;93.91;99291.08;435691;1252;138747;-68
2023/10/07 00:34:59;;;;;;;5.50;3.20;;;;;;;12.64;93.09;99273.36;436073;1253;140419;-68
2023/10/07 00:45:13;;;;;;;4.90;3.30;;;;;;;12.66;92.85;99257.59;435747;1256;139251;-68
2023/10/07 00:55:25;;;;;;;4.30;2.80;;;;;;;12.68;92.08;99244.67;437213;1253;139169;-68
2023/10/07 01:05:33;;;;;;;3.20;2.90;;;;;;;12.67;91.70;99230.98;436062;1254;139527;-68
2023/10/07 01:15:39;;;;;;;;;;;;;;;12.74;91.34;99232.73;435530;1254;139105;-69
2023/10/07 01:25:50;;;;;;;3.70;2.90;;;;;;;12.86;90.76;99228.33;436194;1254;127294;-68
2023/10/07 01:36:08;;;;;;;7.70;4.00;;;;;;;12.94;90.23;99212.41;435847;1255;138918;-69
2023/10/07 01:46:19;;;;;;;6.50;2.60;;;;;;;13.03;89.66;99186.70;435501;1254;141033;-69
2023/10/07 01:56:29;;;;;;;6.30;3.20;;;;;;;13.15;89.00;99180.31;435581;1254;139316;-69
2023/10/07 02:06:49;;;;;;;4.60;2.70;;;;;;;13.26;88.45;99163.45;435721;1256;138850;-68
2023/10/07 02:16:57;;;;;;;5.00;2.80;;;;;;;13.31;87.68;99150.02;435374;1254;139950;-69
2023/10/07 02:27:06;;;;;;;2.90;2.50;;;;;;;13.31;87.30;99158.82;435497;1254;141239;-61
2023/10/07 02:37:13;;;;;;;4.80;2.80;;;;;;;13.36;86.76;99139.58;435807;1255;139367;-62
2023/10/07 02:47:19;;;;;;;3.40;2.10;;;;;;;13.30;86.42;99120.16;435948;1256;139607;-60
2023/10/07 02:57:34;;;;;;;4.70;2.40;;;;;;;13.31;86.30;99119.58;435958;1256;139842;-60
2023/10/07 03:07:49;;;;;;;3.80;2.50;;;;;;;13.30;86.23;99102.78;436824;1256;138957;-61
2023/10/07 03:17:56;;;;;;;3.20;2.10;;;;;;;13.35;86.14;99104.52;436205;1251;140256;-60
2023/10/07 03:28:16;;;;;;;3.00;2.20;;;;;;;13.43;85.94;99099.80;435648;1254;139021;-60
2023/10/07 03:38:25;;;;;;;7.30;2.90;;;;;;;13.53;85.82;99097.30;436856;1255;138569;-60
2023/10/07 03:48:32;;;;;;;5.20;2.90;;;;;;;13.58;85.79;99093.50;437355;1254;139512;-60
2023/10/07 03:58:38;;;;;;;4.60;2.30;;;;;;;13.51;86.30;99096.52;435655;1256;140660;-60
2023/10/07 04:08:45;;;;;;;4.10;2.20;;;;;;;13.36;86.92;99093.51;435551;1256;139760;-62
2023/10/07 04:18:51;;;;;;;3.30;2.20;;;;;;;13.14;87.61;99075.69;435416;1256;140856;-62
2023/10/07 04:28:59;;;;;;;5.80;2.50;;;;;;;13.03;88.33;99071.27;435291;1254;140187;-61
2023/10/07 04:39:17;;;;;;;5.10;2.50;;;;;;;12.99;88.72;99065.48;435641;1255;139791;-60
2023/10/07 04:49:26;;;;;;;;;;;;;;;12.95;89.20;99056.33;435118;1256;138465;-60
2023/10/07 04:59:33;;;;;;;4.10;2.50;;;;;;;12.89;89.66;99055.73;435359;1253;125091;-60
2023/10/07 05:09:39;;;;;;;4.90;2.30;;;;;;;12.94;89.98;99054.66;435181;1254;139441;-61
2023/10/07 05:19:46;;;;;;;3.50;2.00;;;;;;;13.02;90.12;99057.64;435383;1253;139461;-61
2023/10/07 05:29:52;;;;;;;4.40;2.50;;;;;;;13.10;90.52;99063.38;435353;1255;138852;-61
2023/10/07 05:39:59;;;;;;;3.40;2.50;;;;;;;13.18;90.91;99074.26;435279;1256;139583;-61
2023/10/07 05:50:08;;;;;;;5.60;2.60;;;;;;;13.23;91.43;99072.30;435471;1256;139903;-61
2023/10/07 06:00:17;;;;;;;3.50;2.30;;;;;;;13.33;91.95;99079.90;435474;1256;138917;-60
2023/10/07 06:10:24;;;;;;;4.70;2.20;;;;;;;13.43;92.49;99095.44;435629;1254;139656;-61
2023/10/07 06:20:37;;;;;;;4.20;2.40;;;;;;;13.50;93.00;99114.77;435319;1254;138565;-61
2023/10/07 06:30:43;;;;;;;3.80;2.60;;;;;;;13.56;93.55;99108.95;435319;1256;139519;-59
2023/10/07 06:40:53;;;;;;;3.70;2.30;;;;;;;13.65;93.93;99099.28;435106;1256;138533;-61
2023/10/07 06:50:59;;;;;;;3.00;2.00;;;;;;;13.76;94.32;99098.16;436182;1254;138736;-60
2023/10/07 07:01:16;;;;;;;3.20;2.50;;;;;;;13.91;94.45;99098.31;435775;1255;138750;-61
2023/10/07 07:11:25;;;;;;;2.80;1.90;;;;;;;14.12;94.45;99097.05;435368;1256;139144;-61
2023/10/07 07:21:32;;;;;;;6.90;3.00;;;;;;;14.35;94.14;99085.55;436288;1255;138812;-60
2023/10/07 07:31:38;;;;;;;2.50;1.70;;;;;;;14.67;94.03;99081.14;435956;1256;146716;-62
2023/10/07 07:41:55;;;;;;;3.90;2.40;;;;;;;14.92;93.12;99091.84;435938;1256;139240;-61
2023/10/07 07:52:08;;;;;;;6.50;2.20;;;;;;;15.03;92.62;99083.41;435434;1256;139135;-60
2023/10/07 08:02:15;;;;;;;2.90;1.90;;;;;;;15.22;92.25;99080.47;435847;1253;138982;-61
2023/10/07 08:12:28;;;;;;;6.20;2.20;;;;;;;15.58;91.57;99080.89;435638;1255;138536;-61
2023/10/07 08:22:37;;;;;;;4.80;2.20;;;;;;;15.69;90.71;99089.73;436296;1256;138746;-62
2023/10/07 08:32:46;;;;;;;3.20;2.10;;;;;;;15.72;90.20;99095.67;436626;1256;139395;-61
2023/10/07 08:42:55;;;;;;;4.80;3.10;;;;;;;15.69;89.81;99105.59;436295;1257;138629;-61
2023/10/07 08:53:06;;;;;;;3.10;2.00;;;;;;;15.66;89.56;99100.25;436255;1256;138529;-60
2023/10/07 09:03:15;;;;;;;3.80;1.70;;;;;;;15.65;89.58;99099.95;436046;1256;139020;-60
2023/10/07 09:13:27;;;;;;;3.10;2.30;;;;;;;15.66;89.43;99100.45;436348;1256;138715;-60
2023/10/07 09:23:42;;;;;;;3.90;2.40;;;;;;;15.66;89.27;99099.75;436025;1257;139690;-60
2023/10/07 09:33:49;;;;;;;3.00;2.20;;;;;;;15.74;89.38;99098.26;436005;1254;139333;-61
2023/10/07 09:43:56;;;;;;;6.30;2.70;;;;;;;15.82;89.17;99103.19;436039;1252;138626;-60
2023/10/07 09:54:29;;;;;;;3.70;2.10;;;;;;;15.87;89.09;99099.20;435794;1257;140117;-60
2023/10/07 10:04:53;;;;;;;4.60;2.90;;;;;;;15.92;89.04;99102.82;435658;1257;138847;-59
2023/10/07 10:15:50;;;;;;;4.00;2.30;;;;;;;15.96;88.99;99098.91;435749;1254;138859;-60
2023/10/07 10:25:36;;;;;;;3.50;2.20;;;;;;;16.07;88.94;99104.04;435716;1254;139740;-61
2023/10/07 10:35:42;;;;;;;4.30;2.60;;;;;;;16.06;88.84;99101.90;435711;1254;139727;-60
2023/10/07 10:45:48;;;;;;;4.60;2.70;;;;;;;16.08;88.94;99107.63;435753;1254;140088;-60
2023/10/07 10:55:56;;;;;;;7.00;2.50;;;;;;;16.14;89.05;99110.67;436228;1254;139011;-61
2023/10/07 11:06:06;;;;;;;3.10;2.30;;;;;;;16.08;89.04;99105.88;435757;1254;139386;-60
2023/10/07 11:16:11;;;;;;;3.00;2.30;;;;;;;16.00;89.14;99101.59;435630;1257;138988;-60
2023/10/07 11:26:19;;;;;;;4.10;3.10;;;;;;;15.93;89.40;99101.15;436074;1254;139026;-60
2023/10/07 11:36:26;;;;;;;2.90;2.20;;;;;;;15.86;89.60;99112.31;436554;1257;139935;-61
2023/10/07 11:46:31;;;;;;;5.60;2.60;;;;;;;15.78;89.84;99105.81;435717;1256;141988;-61
2023/10/07 11:56:37;;;;;;;3.90;2.60;;;;;;;15.79;90.21;99100.83;435929;1255;138962;-60
2023/10/07 12:06:47;;;;;;;3.50;2.50;;;;;;;15.88;90.56;99102.02;435998;1256;139843;-60
2023/10/07 12:16:52;;;;;;;3.70;2.90;;;;;;;15.93;90.60;99096.05;436104;1252;139856;-61
2023/10/07 12:26:59;;;;;;;4.80;2.60;;;;;;;15.95;90.65;99094.75;435849;1254;139046;-62
2023/10/07 12:37:05;;;;;;;3.00;2.50;;;;;;;15.87;90.57;99098.18;436171;1254;140760;-60
2023/10/07 12:47:11;;;;;;;4.90;2.60;;;;;;;15.77;90.82;99092.70;436445;1254;140416;-69
2023/10/07 12:57:17;;;;;;;8.60;4.00;;;;;;;15.69;91.00;99101.41;437750;1254;138650;-65
2023/10/07 13:07:23;;;;;;;4.40;3.70;;;;;;;15.58;91.61;99101.54;436266;1253;138829;-59
2023/10/07 13:17:29;;;;;;;3.70;3.30;;;;;;;15.41;92.42;99101.36;436360;1256;139792;-61
2023/10/07 13:27:39;;;;;;;4.30;3.40;;;;;;;15.23;93.54;99095.34;436271;1254;139197;-62
2023/10/07 13:37:49;;;;;;;5.20;4.40;;;;;;;15.05;94.49;99079.88;435861;1256;138792;-60
2023/10/07 13:47:56;;;;;;;7.40;5.10;;;;;;;14.85;95.56;99085.77;435748;1254;139265;-61
2023/10/07 13:58:04;;;;;;;3.70;3.30;;;;;;;14.61;96.50;99096.59;435880;1252;140232;-62
2023/10/07 14:08:15;;;;;;;0.50;0.50;;;;;;;14.36;96.82;99097.59;435876;1253;139670;-61
2023/10/07 14:18:24;;;;;;;1.60;0.70;;;;;;;14.09;97.31;99092.71;435580;1256;142172;-61
2023/10/07 14:28:30;;;;;;;2.50;1.10;;;;;;;13.94;98.28;99085.90;436143;1253;139012;-63
2023/10/07 14:38:36;;;;;;;3.60;2.30;;;;;;;13.85;98.90;99085.45;435928;1253;139206;-61
2023/10/07 14:48:45;;;;;;;5.30;3.90;;;;;;;13.76;99.60;99081.82;435732;1256;138962;-61
2023/10/07 14:58:52;;;;;;;15.60;9.10;;;;;;;13.69;100.00;99071.95;436362;1253;139060;-61
2023/10/07 15:08:59;;;;;;;4.40;2.60;;;;;;;13.59;100.00;99068.79;435886;1256;138986;-61
2023/10/07 15:19:05;;;;;;;2.30;1.40;;;;;;;13.49;100.00;99077.14;436789;1256;138954;-62
2023/10/07 15:29:11;;;;;;;1.60;1.30;;;;;;;13.42;100.00;99080.95;435671;1255;141150;-61
2023/10/07 15:39:17;;;;;;;1.20;1.10;;;;;;;13.36;100.00;99085.45;435573;1254;139210;-61
2023/10/07 15:49:24;;;;;;;1.50;0.90;;;;;;;13.30;100.00;99098.06;435590;1253;139275;-62
2023/10/07 15:59:31;;;;;;;3.60;1.50;;;;;;;13.07;100.00;99095.50;435559;1256;139973;-62
2023/10/07 16:09:37;;;;;;;1.40;0.80;;;;;;;12.75;100.00;99098.16;435647;1253;139503;-62
2023/10/07 16:19:44;;;;;;;2.60;0.90;;;;;;;12.47;100.00;99096.67;435586;1253;139246;-62
2023/10/07 16:29:51;;;;;;;1.00;1.00;;;;;;;12.23;100.00;99092.39;436014;1255;138876;-61
2023/10/07 16:39:57;;;;;;;2.40;1.20;;;;;;;12.06;100.00;99093.18;435743;1253;140816;-61
2023/10/07 16:50:08;;;;;;;2.90;1.50;;;;;;;11.93;100.00;99093.83;435834;1256;138788;-61
2023/10/07 17:00:15;;;;;;;1.50;1.40;;;;;;;11.78;100.00;99084.48;435985;1251;139356;-61
2023/10/07 17:10:22;;;;;;;6.40;2.00;;;;;;;11.63;100.00;99075.42;436082;1253;140466;-61
2023/10/07 17:20:33;;;;;;;4.80;1.30;;;;;;;11.56;100.00;99068.27;435917;1253;140129;-62
2023/10/07 17:30:42;;;;;;;3.60;1.60;;;;;;;11.50;100.00;99062.39;436000;1253;140253;-61
2023/10/07 17:40:54;;;;;;;2.10;1.10;;;;;;;11.48;100.00;99077.94;435783;1253;140993;-61
2023/10/07 17:51:00;;;;;;;1.40;1.00;;;;;;;11.43;100.00;99079.70;436398;1253;139735;-61
2023/10/07 18:01:08;;;;;;;2.80;2.00;;;;;;;11.36;100.00;99083.39;436166;1253;139013;-61
2023/10/07 18:11:13;;;;;;;;;;;;;;;11.31;100.00;99092.70;436018;1254;139224;-61
2023/10/07 18:21:19;;;;;;;2.70;1.00;;;;;;;11.23;100.00;99099.63;436541;1256;125377;-62
2023/10/07 18:31:25;;;;;;;2.70;1.70;;;;;;;11.14;100.00;99120.11;436415;1253;140253;-62
2023/10/07 18:41:31;;;;;;;1.50;1.40;;;;;;;10.91;100.00;99144.11;435729;1254;139893;-62
2023/10/07 18:51:38;;;;;;;3.20;1.60;;;;;;;10.58;100.00;99152.13;435959;1253;139768;-61
2023/10/07 19:01:43;;;;;;;1.80;1.40;;;;;;;10.31;100.00;99146.09;435809;1253;140292;-62
2023/10/07 19:11:49;;;;;;;1.90;1.10;;;;;;;10.12;100.00;99143.05;435724;1253;140063;-61
2023/10/07 19:21:57;;;;;;;1.60;0.80;;;;;;;9.97;100.00;99141.08;435604;1253;139435;-61
2023/10/07 19:32:04;;;;;;;2.80;0.80;;;;;;;9.88;100.00;99155.50;436329;1256;166857;-62
2023/10/07 19:42:10;;;;;;;1.40;1.10;;;;;;;9.82;100.00;99173.70;435787;1253;139443;-62
2023/10/07 19:52:16;;;;;;;3.00;1.10;;;;;;;9.80;100.00;99182.05;435527;1253;138980;-62
2023/10/07 20:02:22;;;;;;;4.30;1.60;;;;;;;9.79;100.00;99200.45;435804;1253;140059;-62
2023/10/07 20:12:28;;;;;;;3.30;1.40;;;;;;;9.75;100.00;99213.00;435739;1253;138670;-62
2023/10/07 20:22:34;;;;;;;5.60;1.90;;;;;;;9.70;100.00;99223.78;435711;1253;141007;-62
2023/10/07 20:32:39;;;;;;;2.70;1.20;;;;;;;9.63;100.00;99217.42;435886;1253;140642;-61
2023/10/07 20:42:47;;;;;;;2.00;1.40;;;;;;;9.60;100.00;99198.10;435567;1253;140241;-61
2023/10/07 20:52:52;;;;;;;;;;;;;;;9.58;100.00;99195.77;436346;1253;139890;-61
2023/10/07 21:02:57;;;;;;;2.80;0.90;;;;;;;9.54;100.00;99199.65;435974;1256;125389;-62
2023/10/07 21:13:04;;;;;;;3.00;1.60;;;;;;;9.50;100.00;99202.94;435762;1253;138950;-67
2023/10/07 21:23:12;;;;;;;4.60;1.20;;;;;;;9.48;100.00;99194.99;436129;1256;138877;-65
2023/10/07 21:33:20;;;;;;;3.30;1.30;;;;;;;9.40;100.00;99186.12;435938;1253;139213;-66
2023/10/07 21:43:26;;;;;;;4.50;3.10;;;;;;;9.38;100.00;99174.84;436028;1253;139051;-67
2023/10/07 21:53:32;;;;;;;3.50;1.60;;;;;;;9.42;100.00;99172.31;436241;1256;141122;-66
2023/10/07 22:03:40;;;;;;;1.70;1.00;;;;;;;9.40;100.00;99153.45;436255;1253;138988;-65
2023/10/07 22:13:47;;;;;;;2.90;1.40;;;;;;;9.29;100.00;99171.09;436178;1256;138921;-67
2023/10/07 22:23:52;;;;;;;3.40;2.40;;;;;;;9.20;100.00;99161.16;436242;1254;139007;-68
2023/10/07 22:33:58;;;;;;;2.80;1.50;;;;;;;9.15;100.00;99162.89;436331;1253;140927;-66
2023/10/07 22:44:15;;;;;;;6.10;2.20;;;;;;;9.08;100.00;99169.10;436262;1254;139217;-66
2023/10/07 22:54:32;;;;;;;4.40;2.10;;;;;;;9.05;100.00;99179.62;435781;1253;139874;-66
2023/10/07 23:04:39;;;;;;;4.20;1.90;;;;;;;9.05;100.00;99180.80;435639;1252;139050;-66
2023/10/07 23:14:46;;;;;;;3.10;2.10;;;;;;;9.06;100.00;99184.41;435733;1253;139292;-66
2023/10/07 23:25:13;;;;;;;4.80;1.50;;;;;;;9.06;100.00;99177.63;435855;1255;140339;-66
2023/10/07 23:35:25;;;;;;;5.60;1.90;;;;;;;9.03;100.00;99175.88;436042;1254;140484;-65
2023/10/07 23:45:35;;;;;;;3.60;2.20;;;;;;;8.99;100.00;99181.71;435916;1253;140410;-66
2023/10/07 23:55:43;;;;;;;2.90;1.50;;;;;;;9.01;100.00;99189.28;437268;1256;140735;-66
